Flight Track Log - Related Links

Times and Time Zones

All times are in EDT time to prevent confusion due to time zone crossing. See the JBU56 flight status page for this flight to view local times or setup timezone preferences in your user account.

Time Position Orientation Groundspeed Altitude Reporting Facility
EDT Latitude Longitude Course Direction KTS MPH feet Rate Location/Type
Thu 11:52:19 AM 40.6000 -73.8000 18° North 159 183 2,400  Level New York TRACON
Thu 11:54:00 AM 41.0420 -73.5498 27° Northeast  Level FlightAware Approximate
Thu 11:54:15 AM 40.6661 -73.6522 59° Northeast 289 333 7,400  Level Boston Center
Thu 11:55:00 AM 41.1443 -73.4816 27° Northeast  Level FlightAware Approximate
Thu 11:55:15 AM 40.7419 -73.5878 33° Northeast 312 359 10,300  Level Boston Center
Thu 11:56:00 AM 41.2518 -73.4316 37° Northeast  Level FlightAware Approximate
Thu 11:56:15 AM 40.8339 -73.5567 14° North 321 369 13,500  Level Boston Center
Thu 11:57:00 AM 41.3324 -73.3790 18° North  Level FlightAware Approximate
Thu 11:57:15 AM 40.9133 -73.5442 North 321 369 15,800  Level Boston Center
Thu 11:58:15 AM 41.0133 -73.5514 357° North 321 369 17,000 900 Climbing Boston Center
Thu 11:59:15 AM 41.1069 -73.5419 North 331 381 17,600 1,150 Climbing Boston Center
Thu 12:00:15 PM 41.1950 -73.4967 21° North 344 396 19,300 1,300 Climbing Boston Center
Thu 12:01:15 PM 41.2978 -73.4319 25° Northeast 367 422 20,200 850 Climbing Boston Center
Thu 12:02:15 PM 41.4025 -73.3644 26° Northeast 397 457 21,000 400 Climbing Boston Center
Thu 12:03:15 PM 41.5117 -73.2800 30° Northeast 426 490 21,000  Level Boston Center
Thu 12:04:15 PM 41.6103 -73.1564 43° Northeast 438 504 21,000  Level Boston Center
Thu 12:05:15 PM 41.7231 -73.1242 12° North 417 480 21,000  Level Boston Center
Thu 12:06:15 PM 41.8397 -73.1422 353° North 409 471 21,000  Level Boston Center
Thu 12:07:15 PM 41.9542 -73.1631 352° North 403 464 21,000  Level Boston Center
Thu 12:08:15 PM 42.0667 -73.1839 352° North 403 464 21,000  Level Boston Center
Thu 12:09:15 PM 42.1811 -73.2050 352° North 408 470 21,000  Level Boston Center
Thu 12:10:15 PM 42.2978 -73.2261 352° North 413 475 21,000  Level Boston Center
Thu 12:11:15 PM 42.4039 -73.2331 357° North 413 475 21,000  Level Boston Center
Thu 12:12:15 PM 42.5225 -73.2542 353° North 425 489 21,000  Level Boston Center
Thu 12:13:15 PM 42.6411 -73.2867 349° North 430 495 21,000  Level Boston Center
Thu 12:14:15 PM 42.7597 -73.2997 355° North 425 489 21,000  Level Boston Center
Thu 12:15:15 PM 42.8767 -73.2900 North 425 489 21,000  Level Boston Center
Thu 12:16:15 PM 42.9997 -73.2803 North 425 489 21,000  Level Boston Center
Thu 12:17:15 PM 43.1186 -73.2678 North 425 489 21,000  Level Boston Center
Thu 12:18:15 PM 43.2353 -73.2581 North 425 489 21,000  Level Boston Center
Thu 12:19:15 PM 43.3542 -73.2511 North 425 489 21,000 -650 Level Boston Center
Thu 12:20:15 PM 43.4750 -73.2356 North 413 475 19,700 -1,800 Descending Boston Center
Thu 12:21:15 PM 43.5878 -73.2256 North 402 463 17,400 -2,250 Descending Boston Center
Thu 12:22:15 PM 43.6961 -73.2211 North 397 457 15,200 -2,050 Descending Boston Center
Thu 12:23:15 PM 43.8025 -73.2139 North 392 451 13,300 -1,850 Descending Boston Center
Thu 12:24:15 PM 43.9025 -73.2094 North 364 419 11,500 -1,350 Descending Boston Center
Thu 12:25:15 PM 43.9878 -73.2192 355° North 331 381 10,600 -1,400 Descending Boston Center
Thu 12:26:15 PM 44.0689 -73.2289 355° North 298 343 8,700 -1,750 Descending Boston Center
Thu 12:27:15 PM 44.1481 -73.2414 354° North 291 335 7,100 -1,600 Descending Boston Center
Thu 12:28:15 PM 44.2292 -73.2542 354° North 291 335 5,500 -1,050 Descending Boston Center
Thu 12:29:15 PM 44.3064 -73.2669 353° North 286 329 5,000 -300 Descending Boston Center
Thu 12:30:15 PM 44.3750 -73.2794 353° North 268 308 4,900 -500 Descending Boston Center
Thu 12:31:15 PM 44.4289 -73.2919 351° North 230 265 4,000 -1,000 Descending Boston Center
Thu 12:32:15 PM 44.4792 -73.2897 North 191 220 2,900 -1,100 Descending Boston Center
Thu 12:33:15 PM 44.5064 -73.2464 49° Northeast 142 163 1,800 -1,000 Descending Boston Center
Thu 12:34:15 PM 44.4964 -73.1967 106° East 123 142 900 -750 Descending Boston Center
Thu 12:35:15 PM 44.4694 -73.1528 131° Southeast 139 160 300 -300 Descending Boston Center
Thu 12:36:15 PM 44.4489 -73.1119 125° Southeast 139 160 300  Level Boston Center

Login

Don't have an account? Register now (free) for customized features, flight alerts, and more!